createdAt,value
2019-05-13T00:02:14.818Z,52.60
2019-05-13T00:04:44.338Z,52.90
2019-05-13T00:07:13.917Z,53.40
2019-05-13T00:09:44.274Z,53.60
2019-05-13T00:12:14.054Z,54.00
2019-05-13T00:14:43.549Z,53.40
2019-05-13T00:17:14.621Z,53.50
2019-05-13T00:19:44.415Z,54.10
2019-05-13T00:22:14.192Z,53.90
2019-05-13T00:24:44.434Z,54.30
2019-05-13T00:27:14.800Z,53.00
2019-05-13T00:29:44.530Z,53.60
2019-05-13T00:32:14.195Z,53.60
2019-05-13T00:34:44.592Z,53.60
2019-05-13T00:37:14.895Z,53.90
2019-05-13T00:39:44.374Z,53.60
2019-05-13T00:42:15.301Z,53.40
2019-05-13T00:44:44.825Z,53.60
2019-05-13T00:47:14.318Z,53.70
2019-05-13T00:49:43.858Z,53.70
2019-05-13T00:52:14.305Z,53.90
2019-05-13T00:54:45.021Z,53.60
2019-05-13T00:57:14.564Z,53.80
2019-05-13T00:59:44.420Z,53.90
2019-05-13T01:02:14.115Z,54.20
2019-05-13T01:04:44.261Z,54.30
2019-05-13T01:07:25.364Z,54.80
2019-05-13T01:09:45.020Z,54.40
2019-05-13T01:12:17.415Z,54.00
2019-05-13T01:14:46.925Z,54.00
2019-05-13T01:17:16.458Z,54.00
2019-05-13T01:19:45.955Z,53.80
2019-05-13T01:22:15.529Z,53.40
2019-05-13T01:24:45.060Z,54.00
2019-05-13T01:27:14.565Z,53.90
2019-05-13T01:29:44.143Z,54.00
2019-05-13T01:32:14.443Z,54.70
2019-05-13T01:34:44.399Z,54.40
2019-05-13T01:37:14.065Z,54.70
2019-05-13T01:39:43.841Z,55.30
2019-05-13T01:42:13.877Z,54.90
2019-05-13T01:44:43.861Z,55.10
2019-05-13T01:47:13.532Z,55.40
2019-05-13T01:49:43.993Z,55.30
2019-05-13T01:52:13.761Z,55.30
2019-05-13T01:54:44.267Z,55.30
2019-05-13T01:57:15.021Z,55.40
2019-05-13T01:59:44.634Z,55.20
2019-05-13T02:02:14.208Z,55.30
2019-05-13T02:04:44.029Z,55.40
2019-05-13T02:07:14.479Z,55.20
2019-05-13T02:09:44.447Z,55.60
2019-05-13T02:12:14.024Z,55.00
2019-05-13T02:14:44.364Z,55.20
2019-05-13T02:17:14.727Z,55.60
2019-05-13T02:19:44.452Z,55.90
2019-05-13T02:22:14.708Z,56.00
2019-05-13T02:24:44.851Z,56.40
2019-05-13T02:27:14.659Z,57.60
2019-05-13T02:29:44.257Z,57.00
2019-05-13T02:32:14.124Z,57.50
2019-05-13T02:34:44.116Z,57.60
2019-05-13T02:37:13.696Z,58.10
2019-05-13T02:39:43.204Z,58.20
2019-05-13T02:42:13.426Z,57.30
2019-05-13T02:44:43.823Z,57.10
2019-05-13T02:47:13.607Z,57.50
2019-05-13T02:49:43.365Z,56.90
2019-05-13T02:52:13.429Z,56.80
2019-05-13T02:54:43.374Z,57.20
2019-05-13T02:57:12.953Z,57.50
2019-05-13T02:59:42.619Z,57.90
2019-05-13T03:02:12.555Z,57.90
2019-05-13T03:04:43.434Z,58.30
2019-05-13T03:07:13.185Z,58.70
2019-05-13T03:09:42.774Z,59.10
2019-05-13T03:12:13.157Z,59.50
2019-05-13T03:14:48.146Z,59.20
2019-05-13T03:17:22.052Z,59.50
2019-05-13T03:19:53.115Z,59.20
2019-05-13T03:22:22.399Z,59.30
2019-05-13T03:24:52.641Z,59.80
2019-05-13T03:27:25.035Z,59.80
2019-05-13T03:29:53.580Z,59.60
2019-05-13T03:32:26.964Z,59.50
2019-05-13T03:34:56.456Z,60.30
2019-05-13T03:37:27.072Z,62.10
2019-05-13T03:39:58.087Z,61.60
2019-05-13T03:42:33.261Z,63.00
2019-05-13T03:45:03.186Z,61.00
2019-05-13T03:47:34.624Z,61.90
2019-05-13T03:50:05.731Z,61.30
2019-05-13T03:52:35.350Z,61.70
2019-05-13T03:55:06.884Z,62.90
2019-05-13T03:57:36.660Z,63.20
2019-05-13T04:00:12.880Z,63.90
2019-05-13T04:02:42.940Z,63.10
2019-05-13T04:05:13.451Z,62.80
2019-05-13T04:07:43.528Z,64.20
2019-05-13T04:10:13.428Z,62.80
2019-05-13T04:12:42.932Z,62.70
2019-05-13T04:15:13.007Z,63.90
2019-05-13T04:17:42.906Z,63.50
2019-05-13T04:20:12.851Z,63.30
2019-05-13T04:22:42.854Z,63.90
2019-05-13T04:25:12.918Z,64.00
2019-05-13T04:27:42.967Z,63.80
2019-05-13T04:30:13.599Z,63.60
2019-05-13T04:32:44.229Z,64.50
2019-05-13T04:35:14.243Z,64.00
2019-05-13T04:37:43.789Z,63.50
2019-05-13T04:40:14.201Z,63.80
2019-05-13T04:42:43.769Z,64.20
2019-05-13T04:45:13.697Z,66.30
2019-05-13T04:47:43.511Z,66.80
2019-05-13T04:50:14.227Z,66.10
2019-05-13T04:52:44.181Z,66.60
2019-05-13T04:55:13.777Z,66.20
2019-05-13T04:57:43.867Z,66.40
2019-05-13T05:00:15.195Z,66.40
2019-05-13T05:03:03.819Z,67.40
2019-05-13T05:05:53.393Z,67.30
2019-05-13T05:08:42.133Z,66.90
2019-05-13T05:11:32.323Z,67.50
2019-05-13T05:14:11.959Z,66.80
2019-05-13T05:17:03.205Z,66.30
2019-05-13T05:19:44.947Z,66.40
2019-05-13T05:22:22.132Z,66.50
2019-05-13T05:25:18.399Z,67.10
2019-05-13T05:28:01.981Z,68.30
2019-05-13T05:31:11.547Z,68.30
2019-05-13T05:33:51.649Z,68.30
2019-05-13T05:36:46.100Z,67.70
2019-05-13T05:39:27.261Z,68.00
2019-05-13T05:42:01.986Z,67.60
2019-05-13T05:44:32.717Z,66.50
2019-05-13T05:47:03.751Z,67.10
2019-05-13T05:49:33.353Z,67.00
2019-05-13T05:52:05.444Z,67.30
2019-05-13T05:54:37.925Z,67.60
2019-05-13T05:57:08.461Z,67.10
2019-05-13T05:59:38.440Z,66.70
2019-05-13T06:02:08.638Z,66.10
2019-05-13T06:04:39.766Z,66.10
2019-05-13T06:07:11.578Z,65.70
2019-05-13T06:09:42.363Z,65.60
2019-05-13T06:12:14.829Z,64.70
2019-05-13T06:14:45.057Z,63.00
2019-05-13T06:17:14.625Z,63.40
2019-05-13T06:19:44.232Z,63.30
2019-05-13T06:22:13.931Z,62.00
2019-05-13T06:24:43.581Z,59.90
2019-05-13T06:27:13.090Z,58.90
2019-05-13T06:29:42.750Z,58.50
2019-05-13T06:32:21.547Z,57.60
2019-05-13T06:34:43.654Z,55.70
2019-05-13T06:37:13.425Z,55.10
2019-05-13T06:39:43.511Z,54.60
2019-05-13T06:42:13.111Z,55.00
2019-05-13T06:44:42.623Z,52.80
2019-05-13T06:47:12.188Z,52.90
2019-05-13T06:49:42.775Z,52.00
2019-05-13T06:52:13.077Z,52.20
2019-05-13T06:54:42.668Z,52.30
2019-05-13T06:57:13.478Z,51.10
2019-05-13T06:59:43.192Z,51.00
2019-05-13T07:02:12.745Z,50.40
2019-05-13T07:04:43.413Z,49.90
2019-05-13T07:07:16.883Z,50.40
2019-05-13T07:09:44.235Z,49.60
2019-05-13T07:12:13.748Z,50.60
2019-05-13T07:14:43.260Z,50.70
2019-05-13T07:17:12.885Z,49.70
2019-05-13T07:19:42.573Z,48.90
2019-05-13T07:22:12.224Z,48.30
2019-05-13T07:24:41.834Z,48.80
2019-05-13T07:27:12.291Z,48.90
2019-05-13T07:29:42.487Z,48.70
2019-05-13T07:32:12.217Z,48.10
2019-05-13T07:34:43.847Z,49.20
2019-05-13T07:37:13.024Z,47.50
2019-05-13T07:39:42.893Z,46.90
2019-05-13T07:42:13.678Z,46.00
2019-05-13T07:44:43.318Z,46.70
2019-05-13T07:47:15.710Z,46.30
2019-05-13T07:49:44.064Z,48.00
2019-05-13T07:52:13.708Z,46.30
2019-05-13T07:54:43.289Z,46.20
2019-05-13T07:57:12.855Z,45.80
2019-05-13T07:59:42.504Z,44.70
2019-05-13T08:02:12.977Z,46.30
2019-05-13T08:04:42.576Z,45.80
2019-05-13T08:07:12.334Z,46.60
2019-05-13T08:09:42.113Z,44.30
2019-05-13T08:12:14.316Z,46.30
2019-05-13T08:14:43.614Z,45.10
2019-05-13T08:17:13.614Z,44.80
2019-05-13T08:19:43.132Z,43.90
2019-05-13T08:22:15.503Z,44.70
2019-05-13T08:24:45.092Z,44.00
2019-05-13T08:27:14.588Z,43.10
2019-05-13T08:29:44.216Z,42.50
2019-05-13T08:32:13.768Z,40.80
2019-05-13T08:34:43.332Z,43.20
2019-05-13T08:37:12.827Z,39.60
2019-05-13T08:39:42.446Z,40.20
2019-05-13T08:42:16.836Z,42.30
2019-05-13T08:44:43.269Z,42.40
2019-05-13T08:47:12.836Z,41.20
2019-05-13T08:49:42.508Z,42.10
2019-05-13T08:52:12.322Z,40.80
2019-05-13T08:54:42.114Z,40.80
2019-05-13T08:57:12.043Z,41.30
2019-05-13T08:59:42.388Z,40.20
2019-05-13T09:02:12.079Z,39.10
2019-05-13T09:04:42.364Z,41.40
2019-05-13T09:07:12.395Z,40.60
2019-05-13T09:09:42.195Z,40.90
2019-05-13T09:12:28.166Z,39.70
2019-05-13T09:14:44.073Z,39.10
2019-05-13T09:17:13.567Z,41.00
2019-05-13T09:19:43.061Z,39.20
2019-05-13T09:22:12.641Z,39.30
2019-05-13T09:24:42.636Z,41.60
2019-05-13T09:27:13.440Z,40.40
2019-05-13T09:29:45.752Z,39.30
2019-05-13T09:32:15.201Z,37.40
2019-05-13T09:34:44.785Z,40.20
2019-05-13T09:37:14.431Z,38.80
2019-05-13T09:39:44.294Z,39.30
2019-05-13T09:42:13.790Z,40.60
2019-05-13T09:44:43.380Z,39.50
2019-05-13T09:47:14.431Z,37.70
2019-05-13T09:49:44.004Z,38.40
2019-05-13T09:52:13.648Z,38.80
2019-05-13T09:54:43.252Z,37.70
2019-05-13T09:57:12.816Z,37.10
2019-05-13T09:59:42.543Z,37.30
2019-05-13T10:02:12.669Z,37.80
2019-05-13T10:04:43.760Z,40.60
2019-05-13T10:07:13.577Z,38.90
2019-05-13T10:09:44.492Z,37.60
2019-05-13T10:12:14.406Z,39.10
2019-05-13T10:14:44.273Z,37.70
2019-05-13T10:17:13.912Z,35.90
2019-05-13T10:19:44.980Z,37.10
2019-05-13T10:22:16.076Z,35.00
2019-05-13T10:24:45.761Z,37.60
2019-05-13T10:27:18.814Z,35.20
2019-05-13T10:29:46.874Z,35.10
2019-05-13T10:32:16.716Z,33.60
2019-05-13T10:34:46.888Z,36.90
2019-05-13T10:37:18.056Z,34.50
2019-05-13T10:39:47.569Z,35.90
2019-05-13T10:42:17.212Z,35.00
2019-05-13T10:44:46.932Z,35.20
2019-05-13T10:47:16.456Z,34.30
2019-05-13T10:49:46.024Z,35.20
2019-05-13T10:52:15.666Z,33.50
2019-05-13T10:54:45.252Z,35.00
2019-05-13T10:57:14.824Z,34.20
2019-05-13T10:59:44.468Z,33.60
2019-05-13T11:02:14.176Z,33.90
2019-05-13T11:04:43.783Z,32.50
2019-05-13T11:07:13.344Z,33.40
2019-05-13T11:09:42.882Z,31.60
2019-05-13T11:12:12.645Z,29.90
2019-05-13T11:14:42.376Z,34.80
2019-05-13T11:17:12.989Z,31.40
2019-05-13T11:19:43.126Z,31.10
2019-05-13T11:22:12.703Z,29.50
2019-05-13T11:24:43.109Z,30.30
2019-05-13T11:27:12.902Z,28.80
2019-05-13T11:29:42.472Z,29.20
2019-05-13T11:32:13.315Z,28.30
2019-05-13T11:34:42.973Z,28.60
2019-05-13T11:37:13.644Z,29.80
2019-05-13T11:39:43.136Z,30.10
2019-05-13T11:42:13.528Z,30.20
2019-05-13T11:44:43.637Z,28.20
2019-05-13T11:47:13.213Z,27.00
2019-05-13T11:49:44.554Z,28.80
2019-05-13T11:52:14.159Z,23.70
2019-05-13T11:54:43.655Z,24.30
2019-05-13T11:57:13.344Z,28.00
2019-05-13T11:59:43.221Z,29.20
2019-05-13T12:02:13.865Z,29.40
2019-05-13T12:04:44.180Z,28.20
2019-05-13T12:07:13.922Z,27.60
2019-05-13T12:09:43.494Z,28.90
2019-05-13T12:12:13.601Z,27.40
2019-05-13T12:15:19.912Z,27.80
2019-05-13T12:17:16.304Z,30.70
2019-05-13T12:19:45.981Z,28.90
2019-05-13T12:22:15.601Z,29.40
2019-05-13T12:24:46.319Z,30.60
2019-05-13T12:27:15.952Z,29.20
2019-05-13T12:29:45.559Z,29.70
2019-05-13T12:32:15.133Z,28.60
2019-05-13T12:34:45.948Z,28.10
2019-05-13T12:37:17.170Z,31.20
2019-05-13T12:39:46.812Z,29.90
2019-05-13T12:42:16.515Z,28.30
2019-05-13T12:45:00.501Z,29.40
2019-05-13T12:47:17.448Z,31.10
2019-05-13T12:49:47.277Z,27.90
2019-05-13T12:52:16.891Z,28.50
2019-05-13T12:54:46.465Z,28.90
2019-05-13T12:57:16.544Z,29.60
2019-05-13T12:59:46.229Z,27.40
2019-05-13T13:02:15.740Z,28.40
2019-05-13T13:05:07.777Z,28.50
2019-05-13T13:07:16.596Z,30.40
2019-05-13T13:09:46.199Z,29.40
2019-05-13T13:12:15.769Z,28.70
2019-05-13T13:14:45.428Z,27.60
2019-05-13T13:17:15.026Z,29.30
2019-05-13T13:19:44.602Z,27.10
2019-05-13T13:22:14.322Z,28.10
2019-05-13T13:27:22.822Z,28.60
2019-05-13T13:29:46.195Z,28.00
2019-05-13T13:32:15.696Z,28.10
2019-05-13T13:34:45.342Z,29.20
2019-05-13T13:37:14.928Z,29.30
2019-05-13T13:39:44.809Z,29.10
2019-05-13T13:42:14.394Z,28.10
2019-05-13T13:44:43.984Z,28.40
2019-05-13T13:47:15.175Z,28.10
2019-05-13T13:49:44.978Z,28.70
2019-05-13T13:52:16.332Z,28.40
2019-05-13T13:54:45.752Z,29.80
2019-05-13T13:57:15.321Z,29.60
2019-05-13T14:00:19.185Z,26.90
2019-05-13T14:02:17.366Z,27.20
2019-05-13T14:04:46.887Z,28.00
2019-05-13T14:07:09.112Z,28.80
2019-05-13T14:07:29.982Z,28.00
2019-05-13T14:09:47.992Z,28.00
2019-05-13T14:12:18.731Z,27.80
2019-05-13T14:14:48.268Z,26.00
2019-05-13T14:17:17.840Z,26.30
2019-05-13T14:19:47.440Z,26.70
2019-05-13T14:22:17.040Z,28.00
2019-05-13T14:24:46.813Z,26.10
2019-05-13T14:27:16.384Z,26.30
2019-05-13T14:29:49.101Z,26.20
2019-05-13T14:32:17.096Z,28.10
2019-05-13T14:34:46.810Z,26.80
2019-05-13T14:37:16.299Z,25.80
2019-05-13T14:39:45.904Z,26.40
2019-05-13T14:42:15.512Z,26.10
2019-05-13T14:44:44.996Z,25.50
2019-05-13T14:47:14.571Z,26.60
2019-05-13T14:49:44.164Z,25.50
2019-05-13T14:52:13.655Z,24.90
2019-05-13T14:54:43.235Z,25.30
2019-05-13T14:57:14.982Z,24.40
2019-05-13T14:59:44.018Z,25.10
2019-05-13T15:02:13.621Z,26.30
2019-05-13T15:04:43.210Z,26.70
2019-05-13T15:07:13.165Z,25.20
2019-05-13T15:09:42.752Z,26.60
2019-05-13T15:12:12.328Z,25.90
2019-05-13T15:14:42.945Z,25.10
2019-05-13T15:17:13.009Z,26.60
2019-05-13T15:19:42.877Z,26.90
2019-05-13T15:22:15.694Z,26.90
2019-05-13T15:24:43.586Z,26.00
2019-05-13T15:27:13.144Z,26.20
2019-05-13T15:29:42.585Z,25.90
2019-05-13T15:32:12.175Z,26.80
2019-05-13T15:34:42.503Z,27.10
2019-05-13T15:37:12.312Z,26.20
2019-05-13T15:39:42.665Z,26.10
2019-05-13T15:42:12.456Z,26.20
2019-05-13T15:44:42.028Z,25.50
2019-05-13T15:47:22.734Z,25.00
2019-05-13T15:49:46.526Z,26.50
2019-05-13T15:52:16.068Z,26.60
2019-05-13T15:54:45.596Z,26.10
2019-05-13T15:57:15.171Z,25.50
2019-05-13T15:59:44.738Z,25.60
2019-05-13T16:02:14.660Z,25.40
2019-05-13T16:04:52.132Z,27.50
2019-05-13T16:07:15.464Z,26.60
2019-05-13T16:09:44.905Z,26.60
2019-05-13T16:12:14.461Z,27.10
2019-05-13T16:14:44.125Z,25.40
2019-05-13T16:17:13.863Z,28.50
2019-05-13T16:19:44.724Z,27.00
2019-05-13T16:22:14.293Z,27.40
2019-05-13T16:24:43.856Z,27.70
2019-05-13T16:27:13.470Z,27.40
2019-05-13T16:29:43.040Z,27.50
2019-05-13T16:32:12.540Z,27.10
2019-05-13T16:34:42.481Z,27.10
2019-05-13T16:37:13.188Z,26.70
2019-05-13T16:39:42.808Z,27.00
2019-05-13T16:42:12.307Z,26.30
2019-05-13T16:44:42.969Z,26.30
2019-05-13T16:47:12.876Z,27.00
2019-05-13T16:49:42.445Z,27.00
2019-05-13T16:52:11.962Z,27.20
2019-05-13T16:54:42.746Z,26.70
2019-05-13T16:57:12.294Z,27.60
2019-05-13T16:59:41.799Z,28.50
2019-05-13T17:02:12.652Z,28.10
2019-05-13T17:04:42.587Z,25.70
2019-05-13T17:07:13.206Z,26.40
2019-05-13T17:09:42.777Z,25.90
2019-05-13T17:12:15.820Z,26.70
2019-05-13T17:14:44.132Z,26.30
2019-05-13T17:17:13.649Z,26.10
2019-05-13T17:19:43.203Z,27.30
2019-05-13T17:22:12.729Z,26.80
2019-05-13T17:24:42.772Z,27.10
2019-05-13T17:27:13.563Z,27.60
2019-05-13T17:29:43.064Z,27.40
2019-05-13T17:32:12.776Z,27.60
2019-05-13T17:34:45.758Z,27.80
2019-05-13T17:37:13.631Z,27.60
2019-05-13T17:39:43.223Z,26.80
2019-05-13T17:42:12.732Z,28.00
2019-05-13T17:44:46.354Z,28.30
2019-05-13T17:47:16.336Z,28.50
2019-05-13T17:49:46.323Z,29.00
2019-05-13T17:52:15.860Z,27.10
2019-05-13T17:54:45.431Z,27.30
2019-05-13T17:57:15.012Z,27.00
2019-05-13T17:59:44.667Z,27.30
2019-05-13T18:02:14.179Z,27.60
2019-05-13T18:04:43.763Z,27.90
2019-05-13T18:07:13.583Z,28.30
2019-05-13T18:09:43.151Z,29.10
2019-05-13T18:12:13.860Z,29.20
2019-05-13T18:14:43.424Z,28.80
2019-05-13T18:17:12.987Z,28.60
2019-05-13T18:19:42.512Z,28.70
2019-05-13T18:22:12.116Z,27.70
2019-05-13T18:24:41.679Z,29.00
2019-05-13T18:27:12.240Z,28.80
2019-05-13T18:29:42.261Z,29.30
2019-05-13T18:32:12.336Z,29.50
2019-05-13T18:34:43.152Z,29.90
2019-05-13T18:37:12.686Z,30.40
2019-05-13T18:39:42.183Z,31.10
2019-05-13T18:42:11.781Z,30.60
2019-05-13T18:44:42.161Z,31.40
2019-05-13T18:47:12.413Z,32.30
2019-05-13T18:49:43.272Z,32.10
2019-05-13T18:52:12.851Z,32.90
2019-05-13T18:54:42.540Z,33.00
2019-05-13T18:57:12.435Z,33.20
2019-05-13T18:59:41.985Z,33.80
2019-05-13T19:02:12.586Z,34.10
2019-05-13T19:04:42.158Z,34.00
2019-05-13T19:07:11.842Z,34.30
2019-05-13T19:09:41.849Z,34.60
2019-05-13T19:12:12.637Z,34.50
2019-05-13T19:14:42.305Z,34.70
2019-05-13T19:17:12.336Z,34.90
2019-05-13T19:19:42.278Z,35.10
2019-05-13T19:22:12.232Z,35.30
2019-05-13T19:24:43.021Z,35.70
2019-05-13T19:27:12.610Z,36.00
2019-05-13T19:29:42.672Z,36.50
2019-05-13T19:32:12.679Z,36.80
2019-05-13T19:34:43.707Z,36.90
2019-05-13T19:37:13.243Z,37.50
2019-05-13T19:39:42.828Z,37.50
2019-05-13T19:42:12.377Z,37.80
2019-05-13T19:44:42.469Z,39.00
2019-05-13T19:47:12.529Z,38.60
2019-05-13T19:49:46.515Z,38.80
2019-05-13T19:52:14.612Z,39.10
2019-05-13T19:54:45.209Z,39.50
2019-05-13T19:57:14.775Z,39.90
2019-05-13T19:59:44.413Z,40.00
2019-05-13T20:02:14.092Z,41.10
2019-05-13T20:04:43.605Z,41.10
2019-05-13T20:07:13.167Z,41.10
2019-05-13T20:09:42.898Z,41.30
2019-05-13T20:12:15.681Z,41.40
2019-05-13T20:14:44.120Z,41.10
2019-05-13T20:17:13.763Z,41.50
2019-05-13T20:19:50.292Z,42.00
2019-05-13T20:22:15.406Z,42.30
2019-05-13T20:24:45.019Z,42.30
2019-05-13T20:27:14.471Z,42.00
2019-05-13T20:29:44.032Z,42.30
2019-05-13T20:32:13.643Z,42.60
2019-05-13T20:34:43.076Z,42.70
2019-05-13T20:37:12.562Z,42.40
2019-05-13T20:39:42.573Z,42.00
2019-05-13T20:42:12.710Z,41.90
2019-05-13T20:44:42.368Z,42.70
2019-05-13T20:47:11.896Z,43.30
2019-05-13T20:49:41.870Z,43.30
2019-05-13T20:52:15.195Z,43.40
2019-05-13T20:54:43.012Z,43.30
2019-05-13T20:57:12.600Z,43.50
2019-05-13T20:59:42.092Z,43.90
2019-05-13T21:02:12.484Z,44.00
2019-05-13T21:04:42.132Z,43.90
2019-05-13T21:07:11.628Z,43.80
2019-05-13T21:09:42.303Z,43.70
2019-05-13T21:12:12.246Z,43.70
2019-05-13T21:14:41.867Z,43.50
2019-05-13T21:17:12.267Z,44.50
2019-05-13T21:19:42.873Z,44.50
2019-05-13T21:22:12.871Z,44.90
2019-05-13T21:24:42.384Z,45.30
2019-05-13T21:27:12.139Z,45.20
2019-05-13T21:29:41.809Z,45.50
2019-05-13T21:32:11.763Z,45.40
2019-05-13T21:34:41.533Z,45.20
2019-05-13T21:37:12.396Z,45.50
2019-05-13T21:39:41.815Z,45.50
2019-05-13T21:42:11.568Z,45.10
2019-05-13T21:44:42.012Z,45.70
2019-05-13T21:47:11.783Z,46.20
2019-05-13T21:49:42.343Z,46.80
2019-05-13T21:52:12.061Z,46.10
2019-05-13T21:54:42.156Z,46.10
2019-05-13T21:57:12.023Z,46.10
2019-05-13T21:59:44.901Z,46.20
2019-05-13T22:02:12.847Z,46.10
2019-05-13T22:04:43.410Z,46.00
2019-05-13T22:07:12.976Z,45.70
2019-05-13T22:09:42.463Z,45.30
2019-05-13T22:12:13.299Z,45.10
2019-05-13T22:14:42.872Z,44.60
2019-05-13T22:17:12.551Z,44.10
2019-05-13T22:19:42.167Z,44.00
2019-05-13T22:22:12.063Z,44.00
2019-05-13T22:24:41.944Z,43.70
2019-05-13T22:27:13.305Z,44.10
2019-05-13T22:29:43.013Z,44.20
2019-05-13T22:32:12.579Z,44.10
2019-05-13T22:34:42.093Z,44.20
2019-05-13T22:37:11.855Z,44.70
2019-05-13T22:39:42.098Z,44.60
2019-05-13T22:42:12.573Z,44.90
2019-05-13T22:44:42.136Z,45.20
2019-05-13T22:47:13.467Z,45.50
2019-05-13T22:49:42.885Z,45.90
2019-05-13T22:52:12.463Z,46.30
2019-05-13T22:54:41.951Z,46.40
2019-05-13T22:57:12.058Z,45.90
2019-05-13T22:59:41.788Z,46.20
2019-05-13T23:02:11.329Z,46.00
2019-05-13T23:04:41.884Z,46.30
2019-05-13T23:07:13.112Z,46.40
2019-05-13T23:09:42.674Z,46.90
2019-05-13T23:12:12.444Z,46.80
2019-05-13T23:14:43.143Z,47.00
2019-05-13T23:17:12.676Z,47.50
2019-05-13T23:19:42.243Z,47.40
2019-05-13T23:22:12.182Z,47.90
2019-05-13T23:24:41.984Z,48.40
2019-05-13T23:27:11.547Z,48.90
2019-05-13T23:29:41.427Z,49.40
2019-05-13T23:32:12.010Z,49.20
2019-05-13T23:34:43.078Z,48.80
2019-05-13T23:37:12.646Z,49.10
2019-05-13T23:39:42.216Z,49.20
2019-05-13T23:42:12.319Z,49.30
2019-05-13T23:44:42.132Z,49.40
2019-05-13T23:47:11.795Z,49.70
2019-05-13T23:49:42.067Z,49.70
2019-05-13T23:52:12.124Z,50.00
2019-05-13T23:54:42.394Z,49.80
2019-05-13T23:57:13.180Z,49.90
2019-05-13T23:59:42.679Z,49.90
